sensor_id;sensor_type;location;lat;lon;timestamp;pressure;altitude;pressure_sealevel;temperature;humidity
44481;BME280;30184;42.018;23.670;2023-08-06T00:01:04;90509.72;;;20.25;80.31
44481;BME280;30184;42.018;23.670;2023-08-06T00:03:34;90501.28;;;20.18;80.84
44481;BME280;30184;42.018;23.670;2023-08-06T00:06:06;90500.28;;;20.15;81.09
44481;BME280;30184;42.018;23.670;2023-08-06T00:08:35;90497.38;;;20.07;82.99
44481;BME280;30184;42.018;23.670;2023-08-06T00:11:04;90504.19;;;20.01;82.32
44481;BME280;30184;42.018;23.670;2023-08-06T00:13:34;90490.22;;;19.93;80.80
44481;BME280;30184;42.018;23.670;2023-08-06T00:16:10;90483.00;;;19.90;82.63
44481;BME280;30184;42.018;23.670;2023-08-06T00:18:40;90341.47;;;18.90;80.95
44481;BME280;30184;42.018;23.670;2023-08-06T00:21:10;90486.09;;;19.75;82.35
44481;BME280;30184;42.018;23.670;2023-08-06T00:23:41;90493.69;;;19.69;83.30
44481;BME280;30184;42.018;23.670;2023-08-06T00:26:11;90488.25;;;19.58;83.30
44481;BME280;30184;42.018;23.670;2023-08-06T00:28:40;90480.56;;;19.51;83.49
44481;BME280;30184;42.018;23.670;2023-08-06T00:31:09;90477.84;;;19.40;84.16
44481;BME280;30184;42.018;23.670;2023-08-06T00:33:39;90479.91;;;19.34;85.29
44481;BME280;30184;42.018;23.670;2023-08-06T00:36:08;90471.41;;;19.32;86.03
44481;BME280;30184;42.018;23.670;2023-08-06T00:38:38;90459.72;;;19.26;86.05
44481;BME280;30184;42.018;23.670;2023-08-06T00:41:09;90460.97;;;19.19;85.62
44481;BME280;30184;42.018;23.670;2023-08-06T00:43:39;90410.72;;;18.89;85.93
44481;BME280;30184;42.018;23.670;2023-08-06T00:46:09;90207.41;;;17.54;85.67
44481;BME280;30184;42.018;23.670;2023-08-06T00:48:39;90454.97;;;19.21;85.30
44481;BME280;30184;42.018;23.670;2023-08-06T00:51:10;90439.78;;;19.14;86.17
44481;BME280;30184;42.018;23.670;2023-08-06T00:53:42;90427.91;;;18.95;86.48
44481;BME280;30184;42.018;23.670;2023-08-06T00:56:12;90439.13;;;18.97;87.65
44481;BME280;30184;42.018;23.670;2023-08-06T00:58:42;90453.56;;;19.09;86.82
44481;BME280;30184;42.018;23.670;2023-08-06T01:01:11;90442.84;;;19.05;87.44
44481;BME280;30184;42.018;23.670;2023-08-06T01:03:41;90447.34;;;19.02;88.06
44481;BME280;30184;42.018;23.670;2023-08-06T01:06:10;90442.91;;;18.94;88.43
44481;BME280;30184;42.018;23.670;2023-08-06T01:08:48;90373.47;;;18.41;89.19
44481;BME280;30184;42.018;23.670;2023-08-06T01:11:26;90439.59;;;19.01;89.80
44481;BME280;30184;42.018;23.670;2023-08-06T01:14:02;90417.00;;;18.78;89.55
44481;BME280;30184;42.018;23.670;2023-08-06T01:16:33;90424.72;;;18.85;89.37
44481;BME280;30184;42.018;23.670;2023-08-06T01:19:04;90443.38;;;18.98;89.39
44481;BME280;30184;42.018;23.670;2023-08-06T01:21:35;90424.88;;;18.98;89.41
44481;BME280;30184;42.018;23.670;2023-08-06T01:24:05;90415.91;;;18.92;89.00
44481;BME280;30184;42.018;23.670;2023-08-06T01:26:40;90429.41;;;18.96;88.87
44481;BME280;30184;42.018;23.670;2023-08-06T01:29:17;90415.41;;;18.94;89.28
44481;BME280;30184;42.018;23.670;2023-08-06T01:31:48;90409.41;;;18.95;89.97
44481;BME280;30184;42.018;23.670;2023-08-06T01:34:22;90418.50;;;18.79;89.81
44481;BME280;30184;42.018;23.670;2023-08-06T01:36:54;90402.69;;;18.91;90.26
44481;BME280;30184;42.018;23.670;2023-08-06T01:39:23;90408.69;;;18.89;90.83
44481;BME280;30184;42.018;23.670;2023-08-06T01:41:52;90419.47;;;18.87;89.91
44481;BME280;30184;42.018;23.670;2023-08-06T01:44:22;90405.72;;;18.87;89.72
44481;BME280;30184;42.018;23.670;2023-08-06T01:46:51;90399.50;;;18.81;89.80
44481;BME280;30184;42.018;23.670;2023-08-06T01:49:20;90384.78;;;18.79;90.37
44481;BME280;30184;42.018;23.670;2023-08-06T01:51:49;90370.78;;;18.77;90.78
44481;BME280;30184;42.018;23.670;2023-08-06T01:54:20;90380.59;;;18.67;91.21
44481;BME280;30184;42.018;23.670;2023-08-06T01:56:50;90364.88;;;18.67;90.99
44481;BME280;30184;42.018;23.670;2023-08-06T01:59:20;90362.63;;;18.66;92.23
44481;BME280;30184;42.018;23.670;2023-08-06T02:01:49;90356.63;;;18.67;91.88
44481;BME280;30184;42.018;23.670;2023-08-06T02:04:18;90362.13;;;18.67;92.03
44481;BME280;30184;42.018;23.670;2023-08-06T02:06:48;90371.59;;;18.66;92.59
44481;BME280;30184;42.018;23.670;2023-08-06T02:09:17;90367.59;;;18.67;92.85
44481;BME280;30184;42.018;23.670;2023-08-06T02:11:48;90367.13;;;18.63;92.67
44481;BME280;30184;42.018;23.670;2023-08-06T02:14:17;90377.38;;;18.62;92.70
44481;BME280;30184;42.018;23.670;2023-08-06T02:16:47;90357.69;;;18.53;93.66
44481;BME280;30184;42.018;23.670;2023-08-06T02:19:17;90353.66;;;18.54;93.88
44481;BME280;30184;42.018;23.670;2023-08-06T02:21:46;90359.16;;;18.54;93.31
44481;BME280;30184;42.018;23.670;2023-08-06T02:24:16;90357.16;;;18.54;92.72
44481;BME280;30184;42.018;23.670;2023-08-06T02:26:45;90378.91;;;18.52;93.42
44481;BME280;30184;42.018;23.670;2023-08-06T02:29:17;90379.66;;;18.53;93.55
44481;BME280;30184;42.018;23.670;2023-08-06T02:31:47;90379.69;;;18.47;94.28
44481;BME280;30184;42.018;23.670;2023-08-06T02:34:17;90368.69;;;18.47;93.68
44481;BME280;30184;42.018;23.670;2023-08-06T02:36:46;90365.72;;;18.40;94.75
44481;BME280;30184;42.018;23.670;2023-08-06T02:39:16;90366.22;;;18.44;93.97
44481;BME280;30184;42.018;23.670;2023-08-06T02:41:45;90367.94;;;18.47;94.46
44481;BME280;30184;42.018;23.670;2023-08-06T02:44:14;90400.66;;;18.45;95.44
44481;BME280;30184;42.018;23.670;2023-08-06T02:46:45;90386.16;;;18.44;95.29
44481;BME280;30184;42.018;23.670;2023-08-06T02:49:14;90386.66;;;18.48;94.94
44481;BME280;30184;42.018;23.670;2023-08-06T02:51:45;90388.41;;;18.51;95.09
44481;BME280;30184;42.018;23.670;2023-08-06T02:54:14;90379.66;;;18.53;94.88
44481;BME280;30184;42.018;23.670;2023-08-06T02:56:44;90363.00;;;18.40;94.54
44481;BME280;30184;42.018;23.670;2023-08-06T02:59:21;90371.41;;;18.53;94.19
44481;BME280;30184;42.018;23.670;2023-08-06T03:02:05;90394.66;;;18.52;94.63
44481;BME280;30184;42.018;23.670;2023-08-06T03:04:53;90303.28;;;17.99;94.60
44481;BME280;30184;42.018;23.670;2023-08-06T03:07:26;90393.16;;;18.45;95.15
44481;BME280;30184;42.018;23.670;2023-08-06T03:10:03;90362.56;;;18.19;94.78
44481;BME280;30184;42.018;23.670;2023-08-06T03:12:32;90429.91;;;18.37;96.54
44481;BME280;30184;42.018;23.670;2023-08-06T03:15:04;90437.63;;;18.44;97.46
44481;BME280;30184;42.018;23.670;2023-08-06T03:17:35;90423.91;;;18.44;98.27
44481;BME280;30184;42.018;23.670;2023-08-06T03:20:08;90421.69;;;18.31;98.01
44481;BME280;30184;42.018;23.670;2023-08-06T03:22:38;90421.63;;;18.48;97.36
44481;BME280;30184;42.018;23.670;2023-08-06T03:25:08;90419.13;;;18.50;97.37
44481;BME280;30184;42.018;23.670;2023-08-06T03:27:38;90341.47;;;17.97;97.48
44481;BME280;30184;42.018;23.670;2023-08-06T03:30:08;90442.59;;;18.62;98.06
44481;BME280;30184;42.018;23.670;2023-08-06T03:32:40;90433.31;;;18.65;97.97
44481;BME280;30184;42.018;23.670;2023-08-06T03:35:11;90440.81;;;18.64;97.69
44481;BME280;30184;42.018;23.670;2023-08-06T03:37:40;90398.97;;;18.31;98.80
44481;BME280;30184;42.018;23.670;2023-08-06T03:40:10;90437.28;;;18.70;99.09
44481;BME280;30184;42.018;23.670;2023-08-06T03:42:40;90440.00;;;18.75;98.43
44481;BME280;30184;42.018;23.670;2023-08-06T03:45:09;90407.13;;;18.53;97.79
44481;BME280;30184;42.018;23.670;2023-08-06T03:47:42;90279.19;;;17.75;97.75
44481;BME280;30184;42.018;23.670;2023-08-06T03:50:12;90418.00;;;18.75;98.58
44481;BME280;30184;42.018;23.670;2023-08-06T03:52:41;90366.28;;;18.33;98.42
44481;BME280;30184;42.018;23.670;2023-08-06T03:55:11;90454.94;;;18.85;99.69
44481;BME280;30184;42.018;23.670;2023-08-06T03:57:41;90415.16;;;18.40;99.50
44481;BME280;30184;42.018;23.670;2023-08-06T04:00:11;90312.84;;;17.76;99.27
44481;BME280;30184;42.018;23.670;2023-08-06T04:02:50;90453.03;;;18.69;99.47
44481;BME280;30184;42.018;23.670;2023-08-06T04:05:19;90446.78;;;18.69;99.74
44481;BME280;30184;42.018;23.670;2023-08-06T04:07:49;90441.28;;;18.69;99.83
44481;BME280;30184;42.018;23.670;2023-08-06T04:10:20;90441.59;;;18.59;100.00
44481;BME280;30184;42.018;23.670;2023-08-06T04:12:49;90429.34;;;18.60;100.00
44481;BME280;30184;42.018;23.670;2023-08-06T04:15:19;90416.63;;;18.46;100.00
44481;BME280;30184;42.018;23.670;2023-08-06T04:17:49;90412.88;;;18.49;100.00
44481;BME280;30184;42.018;23.670;2023-08-06T04:20:19;90411.38;;;18.48;100.00
44481;BME280;30184;42.018;23.670;2023-08-06T04:22:48;90407.16;;;18.47;100.00
44481;BME280;30184;42.018;23.670;2023-08-06T04:25:17;90288.94;;;17.65;99.86
44481;BME280;30184;42.018;23.670;2023-08-06T04:27:49;90409.44;;;18.43;100.00
44481;BME280;30184;42.018;23.670;2023-08-06T04:30:19;90413.69;;;18.39;100.00
44481;BME280;30184;42.018;23.670;2023-08-06T04:32:50;90414.94;;;18.38;100.00
44481;BME280;30184;42.018;23.670;2023-08-06T04:35:21;90395.69;;;18.38;100.00
44481;BME280;30184;42.018;23.670;2023-08-06T04:37:50;90402.69;;;18.39;100.00
44481;BME280;30184;42.018;23.670;2023-08-06T04:40:19;90409.69;;;18.40;100.00
44481;BME280;30184;42.018;23.670;2023-08-06T04:42:49;90413.41;;;18.42;100.00
44481;BME280;30184;42.018;23.670;2023-08-06T04:45:19;90411.63;;;18.50;100.00
44481;BME280;30184;42.018;23.670;2023-08-06T04:47:50;90403.63;;;18.58;100.00
44481;BME280;30184;42.018;23.670;2023-08-06T04:50:20;90406.56;;;18.71;100.00
44481;BME280;30184;42.018;23.670;2023-08-06T04:52:49;90392.72;;;18.88;100.00
44481;BME280;30184;42.018;23.670;2023-08-06T04:55:19;90457.19;;;18.87;98.94
44481;BME280;30184;42.018;23.670;2023-08-06T04:57:48;90387.78;;;19.11;98.83
44481;BME280;30184;42.018;23.670;2023-08-06T05:00:18;90394.59;;;19.04;96.58
44481;BME280;30184;42.018;23.670;2023-08-06T05:02:47;90389.13;;;19.34;96.72
44481;BME280;30184;42.018;23.670;2023-08-06T05:05:18;90343.06;;;18.80;95.66
44481;BME280;30184;42.018;23.670;2023-08-06T05:07:48;90380.00;;;19.50;94.90
44481;BME280;30184;42.018;23.670;2023-08-06T05:10:18;90372.16;;;19.84;95.03
44481;BME280;30184;42.018;23.670;2023-08-06T05:12:47;90369.69;;;20.05;91.31
44481;BME280;30184;42.018;23.670;2023-08-06T05:15:17;90318.50;;;19.96;90.66
44481;BME280;30184;42.018;23.670;2023-08-06T05:17:47;90362.88;;;20.55;87.95
44481;BME280;30184;42.018;23.670;2023-08-06T05:20:18;90328.13;;;20.27;86.06
44481;BME280;30184;42.018;23.670;2023-08-06T05:22:47;90354.53;;;20.79;85.12
44481;BME280;30184;42.018;23.670;2023-08-06T05:25:17;90299.41;;;20.41;85.27
44481;BME280;30184;42.018;23.670;2023-08-06T05:27:46;90343.56;;;20.92;85.03
44481;BME280;30184;42.018;23.670;2023-08-06T05:30:16;90346.31;;;20.92;85.99
44481;BME280;30184;42.018;23.670;2023-08-06T05:32:46;90349.34;;;21.07;84.84
44481;BME280;30184;42.018;23.670;2023-08-06T05:35:17;90348.47;;;20.99;83.22
44481;BME280;30184;42.018;23.670;2023-08-06T05:37:47;90359.56;;;21.12;83.31
44481;BME280;30184;42.018;23.670;2023-08-06T05:40:17;90385.66;;;21.11;83.78
44481;BME280;30184;42.018;23.670;2023-08-06T05:42:46;90354.44;;;21.03;83.96
44481;BME280;30184;42.018;23.670;2023-08-06T05:45:16;90340.88;;;20.86;85.26
44481;BME280;30184;42.018;23.670;2023-08-06T05:47:47;90342.81;;;20.92;85.67
44481;BME280;30184;42.018;23.670;2023-08-06T05:50:18;90342.06;;;20.91;86.27
44481;BME280;30184;42.018;23.670;2023-08-06T05:52:48;90339.47;;;20.80;87.17
44481;BME280;30184;42.018;23.670;2023-08-06T05:55:17;90344.09;;;20.91;86.00
44481;BME280;30184;42.018;23.670;2023-08-06T05:57:47;90338.28;;;20.94;85.33
44481;BME280;30184;42.018;23.670;2023-08-06T06:00:16;90332.97;;;20.96;85.58
44481;BME280;30184;42.018;23.670;2023-08-06T06:02:46;90340.03;;;21.10;85.18
44481;BME280;30184;42.018;23.670;2023-08-06T06:05:15;90343.00;;;21.12;81.30
44481;BME280;30184;42.018;23.670;2023-08-06T06:07:46;90342.25;;;21.31;83.13
44481;BME280;30184;42.018;23.670;2023-08-06T06:10:15;90334.84;;;21.39;82.06
44481;BME280;30184;42.018;23.670;2023-08-06T06:12:45;90332.19;;;21.46;79.99
44481;BME280;30184;42.018;23.670;2023-08-06T06:15:14;90318.03;;;21.23;81.06
44481;BME280;30184;42.018;23.670;2023-08-06T06:17:43;90351.97;;;21.64;80.21
44481;BME280;30184;42.018;23.670;2023-08-06T06:20:12;90357.72;;;21.79;79.95
44481;BME280;30184;42.018;23.670;2023-08-06T06:22:41;90364.75;;;21.80;81.14
44481;BME280;30184;42.018;23.670;2023-08-06T06:25:12;90360.63;;;21.86;78.88
44481;BME280;30184;42.018;23.670;2023-08-06T06:27:41;90332.13;;;21.78;77.85
44481;BME280;30184;42.018;23.670;2023-08-06T06:30:11;90315.78;;;21.67;76.49
44481;BME280;30184;42.018;23.670;2023-08-06T06:32:41;90339.81;;;21.85;78.11
44481;BME280;30184;42.018;23.670;2023-08-06T06:35:10;90360.00;;;21.93;78.30
44481;BME280;30184;42.018;23.670;2023-08-06T06:37:39;90363.19;;;21.98;77.38
44481;BME280;30184;42.018;23.670;2023-08-06T06:40:09;90366.91;;;22.00;76.48
44481;BME280;30184;42.018;23.670;2023-08-06T06:42:40;90363.63;;;22.02;76.55
44481;BME280;30184;42.018;23.670;2023-08-06T06:45:10;90374.47;;;22.13;76.55
44481;BME280;30184;42.018;23.670;2023-08-06T06:47:39;90365.78;;;22.22;75.54
44481;BME280;30184;42.018;23.670;2023-08-06T06:50:09;90365.88;;;22.29;75.67
44481;BME280;30184;42.018;23.670;2023-08-06T06:52:38;90259.59;;;21.51;69.49
44481;BME280;30184;42.018;23.670;2023-08-06T06:55:08;90372.47;;;22.13;69.66
44481;BME280;30184;42.018;23.670;2023-08-06T06:57:38;90403.47;;;22.19;71.82
44481;BME280;30184;42.018;23.670;2023-08-06T07:00:09;90387.22;;;22.29;71.10
44481;BME280;30184;42.018;23.670;2023-08-06T07:02:39;90388.16;;;22.45;71.06
44481;BME280;30184;42.018;23.670;2023-08-06T07:05:08;90389.44;;;22.57;70.45
44481;BME280;30184;42.018;23.670;2023-08-06T07:07:38;90392.31;;;22.64;69.22
44481;BME280;30184;42.018;23.670;2023-08-06T07:10:08;90386.16;;;22.58;71.36
44481;BME280;30184;42.018;23.670;2023-08-06T07:12:37;90385.53;;;22.79;72.27
44481;BME280;30184;42.018;23.670;2023-08-06T07:15:06;90346.31;;;22.41;70.03
44481;BME280;30184;42.018;23.670;2023-08-06T07:17:37;90334.91;;;22.57;66.85
44481;BME280;30184;42.018;23.670;2023-08-06T07:20:07;90371.09;;;22.93;66.64
44481;BME280;30184;42.018;23.670;2023-08-06T07:22:36;90381.03;;;22.89;65.81
44481;BME280;30184;42.018;23.670;2023-08-06T07:25:07;90374.00;;;22.88;65.72
44481;BME280;30184;42.018;23.670;2023-08-06T07:27:36;90382.59;;;22.97;65.92
44481;BME280;30184;42.018;23.670;2023-08-06T07:30:07;90359.63;;;22.89;64.99
44481;BME280;30184;42.018;23.670;2023-08-06T07:32:37;90380.13;;;23.07;66.42
44481;BME280;30184;42.018;23.670;2023-08-06T07:35:07;90375.00;;;23.11;68.19
44481;BME280;30184;42.018;23.670;2023-08-06T07:37:40;90396.81;;;23.15;67.80
44481;BME280;30184;42.018;23.670;2023-08-06T07:40:10;90361.97;;;23.19;66.68
44481;BME280;30184;42.018;23.670;2023-08-06T07:42:40;90370.09;;;23.38;65.57
44481;BME280;30184;42.018;23.670;2023-08-06T07:45:10;90379.97;;;23.47;65.64
44481;BME280;30184;42.018;23.670;2023-08-06T07:47:41;90380.69;;;23.60;64.64
44481;BME280;30184;42.018;23.670;2023-08-06T07:50:11;90392.25;;;23.72;62.83
44481;BME280;30184;42.018;23.670;2023-08-06T07:52:40;90377.63;;;23.92;62.62
44481;BME280;30184;42.018;23.670;2023-08-06T07:55:09;90358.22;;;23.92;61.88
44481;BME280;30184;42.018;23.670;2023-08-06T07:57:39;90368.81;;;24.01;59.23
44481;BME280;30184;42.018;23.670;2023-08-06T08:00:09;90384.16;;;24.23;57.75
44481;BME280;30184;42.018;23.670;2023-08-06T08:02:40;90387.91;;;24.33;56.24
44481;BME280;30184;42.018;23.670;2023-08-06T08:05:10;90377.13;;;24.22;53.76
44481;BME280;30184;42.018;23.670;2023-08-06T08:07:40;90377.16;;;24.30;50.55
44481;BME280;30184;42.018;23.670;2023-08-06T08:10:09;90395.53;;;24.40;53.35
44481;BME280;30184;42.018;23.670;2023-08-06T08:12:39;90388.50;;;24.39;51.69
44481;BME280;30184;42.018;23.670;2023-08-06T08:15:09;90379.84;;;24.43;52.55
44481;BME280;30184;42.018;23.670;2023-08-06T08:17:41;90382.78;;;24.37;53.58
44481;BME280;30184;42.018;23.670;2023-08-06T08:20:12;90402.78;;;24.43;51.48
44481;BME280;30184;42.018;23.670;2023-08-06T08:22:42;90368.09;;;24.29;50.99
44481;BME280;30184;42.018;23.670;2023-08-06T08:25:11;90376.16;;;24.48;51.42
44481;BME280;30184;42.018;23.670;2023-08-06T08:27:41;90377.47;;;24.47;52.99
44481;BME280;30184;42.018;23.670;2023-08-06T08:30:11;90376.94;;;24.56;55.19
44481;BME280;30184;42.018;23.670;2023-08-06T08:32:42;90355.84;;;24.45;51.78
44481;BME280;30184;42.018;23.670;2023-08-06T08:35:11;90380.81;;;24.81;50.46
44481;BME280;30184;42.018;23.670;2023-08-06T08:37:42;90383.56;;;24.81;50.03
44481;BME280;30184;42.018;23.670;2023-08-06T08:40:11;90377.56;;;24.98;51.10
44481;BME280;30184;42.018;23.670;2023-08-06T08:42:43;90384.63;;;25.07;48.65
44481;BME280;30184;42.018;23.670;2023-08-06T08:45:13;90381.72;;;25.20;50.25
44481;BME280;30184;42.018;23.670;2023-08-06T08:47:45;90361.38;;;25.33;47.77
44481;BME280;30184;42.018;23.670;2023-08-06T08:50:16;90364.75;;;25.39;44.52
44481;BME280;30184;42.018;23.670;2023-08-06T08:52:47;90367.66;;;25.18;44.52
44481;BME280;30184;42.018;23.670;2023-08-06T08:55:20;90352.31;;;25.32;44.13
44481;BME280;30184;42.018;23.670;2023-08-06T08:57:50;90348.28;;;25.48;46.09
44481;BME280;30184;42.018;23.670;2023-08-06T09:00:19;90354.81;;;25.66;44.04
44481;BME280;30184;42.018;23.670;2023-08-06T09:02:50;90341.84;;;25.76;42.69
44481;BME280;30184;42.018;23.670;2023-08-06T09:05:20;90340.91;;;25.81;41.36
44481;BME280;30184;42.018;23.670;2023-08-06T09:07:52;90330.75;;;25.84;42.13
44481;BME280;30184;42.018;23.670;2023-08-06T09:10:22;90320.38;;;25.84;45.53
44481;BME280;30184;42.018;23.670;2023-08-06T09:12:54;90329.97;;;26.06;41.91
44481;BME280;30184;42.018;23.670;2023-08-06T09:15:24;90342.56;;;26.07;41.72
44481;BME280;30184;42.018;23.670;2023-08-06T09:17:55;90333.31;;;26.12;42.83
44481;BME280;30184;42.018;23.670;2023-08-06T09:20:25;90325.53;;;26.18;43.40
44481;BME280;30184;42.018;23.670;2023-08-06T09:22:54;90328.69;;;26.30;39.93
44481;BME280;30184;42.018;23.670;2023-08-06T09:25:24;90291.44;;;26.02;38.69
44481;BME280;30184;42.018;23.670;2023-08-06T09:27:56;90252.19;;;25.76;39.81
44481;BME280;30184;42.018;23.670;2023-08-06T09:30:29;90338.84;;;26.43;45.33
44481;BME280;30184;42.018;23.670;2023-08-06T09:33:01;90335.13;;;26.55;39.69
44481;BME280;30184;42.018;23.670;2023-08-06T09:35:31;90326.94;;;26.65;38.30
44481;BME280;30184;42.018;23.670;2023-08-06T09:38:05;90334.34;;;26.62;36.59
44481;BME280;30184;42.018;23.670;2023-08-06T09:40:37;90336.56;;;26.64;38.38
44481;BME280;30184;42.018;23.670;2023-08-06T09:43:07;90335.44;;;26.74;40.90
44481;BME280;30184;42.018;23.670;2023-08-06T09:45:37;90349.53;;;26.77;38.38
44481;BME280;30184;42.018;23.670;2023-08-06T09:48:09;90346.19;;;26.78;39.49
44481;BME280;30184;42.018;23.670;2023-08-06T09:50:39;90307.28;;;26.55;38.72
44481;BME280;30184;42.018;23.670;2023-08-06T09:53:09;90348.03;;;26.83;37.82
44481;BME280;30184;42.018;23.670;2023-08-06T09:55:39;90351.34;;;26.82;37.96
44481;BME280;30184;42.018;23.670;2023-08-06T09:58:08;90319.31;;;26.65;38.93
44481;BME280;30184;42.018;23.670;2023-08-06T10:00:38;90345.41;;;26.85;37.76
44481;BME280;30184;42.018;23.670;2023-08-06T10:03:09;90363.94;;;26.98;36.24
44481;BME280;30184;42.018;23.670;2023-08-06T10:05:42;90363.19;;;26.97;36.83
44481;BME280;30184;42.018;23.670;2023-08-06T10:08:16;90361.31;;;27.07;36.81
44481;BME280;30184;42.018;23.670;2023-08-06T10:10:46;90353.13;;;27.09;37.01
44481;BME280;30184;42.018;23.670;2023-08-06T10:13:16;90311.75;;;26.51;36.57
44481;BME280;30184;42.018;23.670;2023-08-06T10:15:48;90256.94;;;26.28;37.23
44481;BME280;30184;42.018;23.670;2023-08-06T10:18:20;90366.91;;;27.00;36.84
44481;BME280;30184;42.018;23.670;2023-08-06T10:20:50;90368.03;;;27.04;40.14
44481;BME280;30184;42.018;23.670;2023-08-06T10:23:19;90371.84;;;27.17;39.33
44481;BME280;30184;42.018;23.670;2023-08-06T10:25:54;90353.84;;;27.18;38.31
44481;BME280;30184;42.018;23.670;2023-08-06T10:28:34;90365.81;;;26.88;36.78
44481;BME280;30184;42.018;23.670;2023-08-06T10:31:04;90371.25;;;26.78;38.71
44481;BME280;30184;42.018;23.670;2023-08-06T10:33:42;90376.44;;;26.74;37.78
44481;BME280;30184;42.018;23.670;2023-08-06T10:36:12;90363.44;;;26.77;38.03
44481;BME280;30184;42.018;23.670;2023-08-06T10:38:45;90354.66;;;26.88;38.51
44481;BME280;30184;42.018;23.670;2023-08-06T10:41:17;90350.97;;;26.93;36.00
44481;BME280;30184;42.018;23.670;2023-08-06T10:43:47;90359.25;;;27.08;36.45
44481;BME280;30184;42.018;23.670;2023-08-06T10:46:26;90358.38;;;27.05;36.38
44481;BME280;30184;42.018;23.670;2023-08-06T10:48:58;90366.28;;;27.17;38.10
44481;BME280;30184;42.018;23.670;2023-08-06T10:51:27;90373.53;;;27.20;36.47
44481;BME280;30184;42.018;23.670;2023-08-06T10:53:57;90371.44;;;27.28;36.82
44481;BME280;30184;42.018;23.670;2023-08-06T10:56:27;90376.09;;;27.25;36.67
44481;BME280;30184;42.018;23.670;2023-08-06T10:58:56;90379.41;;;27.31;37.65
44481;BME280;30184;42.018;23.670;2023-08-06T11:01:28;90366.41;;;27.34;35.95
44481;BME280;30184;42.018;23.670;2023-08-06T11:04:02;90332.34;;;27.10;35.68
44481;BME280;30184;42.018;23.670;2023-08-06T11:06:32;90374.28;;;27.53;35.48
44481;BME280;30184;42.018;23.670;2023-08-06T11:09:02;90269.13;;;26.88;35.49
44481;BME280;30184;42.018;23.670;2023-08-06T11:11:31;90381.91;;;27.60;37.40
44481;BME280;30184;42.018;23.670;2023-08-06T11:14:01;90382.59;;;27.68;36.48
44481;BME280;30184;42.018;23.670;2023-08-06T11:16:30;90334.44;;;27.35;36.53
44481;BME280;30184;42.018;23.670;2023-08-06T11:19:00;90391.41;;;27.81;37.08
44481;BME280;30184;42.018;23.670;2023-08-06T11:21:30;90410.41;;;27.75;35.89
44481;BME280;30184;42.018;23.670;2023-08-06T11:23:59;90279.03;;;26.74;36.52
44481;BME280;30184;42.018;23.670;2023-08-06T11:26:28;90470.19;;;27.34;37.89
44481;BME280;30184;42.018;23.670;2023-08-06T11:28:58;90407.09;;;27.29;37.29
44481;BME280;30184;42.018;23.670;2023-08-06T11:31:27;90127.03;;;25.13;36.56
44481;BME280;30184;42.018;23.670;2023-08-06T11:33:57;90413.47;;;27.15;37.79
44481;BME280;30184;42.018;23.670;2023-08-06T11:36:31;90254.00;;;25.96;38.13
44481;BME280;30184;42.018;23.670;2023-08-06T11:39:01;90436.19;;;27.36;38.15
44481;BME280;30184;42.018;23.670;2023-08-06T11:41:31;90406.53;;;27.31;36.91
44481;BME280;30184;42.018;23.670;2023-08-06T11:44:00;90414.72;;;27.21;38.13
44481;BME280;30184;42.018;23.670;2023-08-06T11:46:49;90403.84;;;27.00;36.49
44481;BME280;30184;42.018;23.670;2023-08-06T11:49:19;90414.81;;;26.98;36.97
44481;BME280;30184;42.018;23.670;2023-08-06T11:51:50;90418.53;;;26.93;36.67
44481;BME280;30184;42.018;23.670;2023-08-06T11:54:30;90406.84;;;26.95;37.54
44481;BME280;30184;42.018;23.670;2023-08-06T11:57:01;90374.03;;;26.63;37.02
44481;BME280;30184;42.018;23.670;2023-08-06T11:59:31;90386.31;;;26.60;36.97
44481;BME280;30184;42.018;23.670;2023-08-06T12:02:02;90400.38;;;26.77;37.49
44481;BME280;30184;42.018;23.670;2023-08-06T12:05:00;90383.66;;;26.85;36.35
44481;BME280;30184;42.018;23.670;2023-08-06T12:07:32;90382.00;;;26.74;35.96
44481;BME280;30184;42.018;23.670;2023-08-06T12:10:01;90435.59;;;26.82;36.56
44481;BME280;30184;42.018;23.670;2023-08-06T12:12:30;90314.75;;;26.45;36.56
44481;BME280;30184;42.018;23.670;2023-08-06T12:15:00;90396.19;;;27.08;34.76
44481;BME280;30184;42.018;23.670;2023-08-06T12:17:30;90419.19;;;27.24;34.48
44481;BME280;30184;42.018;23.670;2023-08-06T12:20:00;90387.06;;;27.23;34.90
44481;BME280;30184;42.018;23.670;2023-08-06T12:22:31;90413.50;;;27.55;35.09
44481;BME280;30184;42.018;23.670;2023-08-06T12:25:04;90414.97;;;27.56;35.90
44481;BME280;30184;42.018;23.670;2023-08-06T12:27:36;90418.59;;;27.73;35.50
44481;BME280;30184;42.018;23.670;2023-08-06T12:30:06;90388.78;;;27.51;34.40
44481;BME280;30184;42.018;23.670;2023-08-06T12:32:35;90420.88;;;27.67;34.43
44481;BME280;30184;42.018;23.670;2023-08-06T12:35:05;90383.13;;;27.34;34.73
44481;BME280;30184;42.018;23.670;2023-08-06T12:37:36;90425.56;;;27.57;35.33
44481;BME280;30184;42.018;23.670;2023-08-06T12:40:07;90437.50;;;27.82;34.87
44481;BME280;30184;42.018;23.670;2023-08-06T12:42:51;90415.38;;;27.84;34.55
44481;BME280;30184;42.018;23.670;2023-08-06T12:45:20;90439.03;;;27.76;35.10
44481;BME280;30184;42.018;23.670;2023-08-06T12:47:50;90401.97;;;27.58;34.62
44481;BME280;30184;42.018;23.670;2023-08-06T12:50:20;90414.25;;;27.47;34.33
44481;BME280;30184;42.018;23.670;2023-08-06T12:52:51;90426.00;;;27.38;35.46
44481;BME280;30184;42.018;23.670;2023-08-06T12:55:21;90354.66;;;26.88;35.70
44481;BME280;30184;42.018;23.670;2023-08-06T12:57:50;90414.66;;;27.36;35.04
44481;BME280;30184;42.018;23.670;2023-08-06T13:00:24;90413.41;;;27.30;35.30
44481;BME280;30184;42.018;23.670;2023-08-06T13:02:54;90437.19;;;27.23;37.16
44481;BME280;30184;42.018;23.670;2023-08-06T13:05:24;90282.13;;;26.23;35.16
44481;BME280;30184;42.018;23.670;2023-08-06T13:07:55;90438.53;;;27.07;35.92